createdAt,value
2023-05-20T03:02:40.800Z,13.33
2023-05-20T03:05:10.273Z,13.30
2023-05-20T03:07:39.433Z,13.32
2023-05-20T03:10:09.734Z,13.31
2023-05-20T03:12:41.768Z,13.30
2023-05-20T03:15:11.938Z,13.31
2023-05-20T03:17:41.148Z,13.30
2023-05-20T03:20:12.973Z,13.29
2023-05-20T03:22:42.898Z,13.30
2023-05-20T03:25:11.740Z,13.31
2023-05-20T03:27:40.908Z,13.28
2023-05-20T03:30:10.472Z,13.17
2023-05-20T03:32:38.995Z,13.13
2023-05-20T03:35:09.449Z,13.15
2023-05-20T03:37:39.160Z,13.20
2023-05-20T03:40:10.481Z,13.25
2023-05-20T03:42:39.765Z,13.21
2023-05-20T03:45:09.468Z,13.22
2023-05-20T03:47:44.338Z,13.25
2023-05-20T03:50:13.231Z,13.24
2023-05-20T03:52:42.011Z,13.14
2023-05-20T03:55:11.126Z,13.07
2023-05-20T03:57:40.692Z,13.04
2023-05-20T04:00:14.882Z,13.07
2023-05-20T04:02:47.003Z,13.14
2023-05-20T04:05:16.808Z,13.28
2023-05-20T04:07:45.820Z,13.35
2023-05-20T04:10:15.607Z,13.38
2023-05-20T04:12:44.742Z,13.39
2023-05-20T04:15:13.743Z,13.42
2023-05-20T04:17:52.871Z,13.47
2023-05-20T04:20:21.685Z,13.50
2023-05-20T04:22:51.473Z,13.49
2023-05-20T04:25:20.886Z,13.53
2023-05-20T04:27:50.520Z,13.57
2023-05-20T04:30:19.052Z,13.61
2023-05-20T04:32:48.721Z,13.67
2023-05-20T04:35:17.930Z,13.74
2023-05-20T04:37:48.450Z,13.81
2023-05-20T04:40:17.745Z,13.85
2023-05-20T04:42:47.065Z,13.86
2023-05-20T04:45:16.744Z,13.82
2023-05-20T04:47:46.545Z,13.84
2023-05-20T04:50:15.932Z,13.91
2023-05-20T04:52:46.212Z,13.94
2023-05-20T04:55:16.362Z,13.94
2023-05-20T04:57:45.777Z,14.00
2023-05-20T05:00:14.648Z,14.02
2023-05-20T05:02:43.643Z,14.01
2023-05-20T05:05:13.150Z,14.04
2023-05-20T05:07:42.052Z,14.05
2023-05-20T05:10:11.235Z,14.06
2023-05-20T05:12:40.617Z,14.09
2023-05-20T05:15:09.601Z,14.12
2023-05-20T05:17:38.848Z,14.18
2023-05-20T05:20:09.357Z,14.17
2023-05-20T05:22:40.062Z,14.16
2023-05-20T05:25:09.369Z,14.19
2023-05-20T05:27:38.444Z,14.27
2023-05-20T05:30:08.336Z,14.34
2023-05-20T05:32:37.340Z,14.43
2023-05-20T05:35:08.237Z,14.46
2023-05-20T05:37:37.224Z,14.46
2023-05-20T05:40:07.497Z,14.47
2023-05-20T05:42:36.099Z,14.44
2023-05-20T05:45:04.725Z,14.42
2023-05-20T05:47:34.521Z,14.44
2023-05-20T05:50:03.789Z,14.41
2023-05-20T05:52:34.348Z,14.39
2023-05-20T05:55:03.434Z,14.46
2023-05-20T05:57:32.429Z,14.59
2023-05-20T06:00:01.432Z,14.74
2023-05-20T06:02:30.414Z,14.84
2023-05-20T06:05:00.173Z,14.89
2023-05-20T06:07:28.385Z,14.96
2023-05-20T06:09:57.173Z,15.10
2023-05-20T06:12:26.098Z,15.19
2023-05-20T06:14:54.992Z,15.26
2023-05-20T06:17:23.869Z,15.31
2023-05-20T06:19:52.177Z,15.34
2023-05-20T06:22:20.950Z,15.34
2023-05-20T06:24:49.020Z,15.28
2023-05-20T06:27:17.249Z,15.30
2023-05-20T06:29:46.180Z,15.34
2023-05-20T06:32:14.481Z,15.41
2023-05-20T06:34:44.846Z,15.54
2023-05-20T06:37:13.845Z,15.65
2023-05-20T06:39:42.012Z,15.77
2023-05-20T06:42:10.362Z,15.93
2023-05-20T06:44:38.879Z,16.06
2023-05-20T06:47:17.815Z,16.17
2023-05-20T06:49:47.893Z,16.31
2023-05-20T06:52:17.711Z,16.52
2023-05-20T06:54:46.908Z,16.79
2023-05-20T06:57:16.270Z,17.04
2023-05-20T06:59:45.567Z,17.23
2023-05-20T07:02:15.915Z,17.32
2023-05-20T07:04:45.371Z,17.35
2023-05-20T07:07:15.451Z,17.42
2023-05-20T07:09:46.938Z,17.47
2023-05-20T07:12:16.542Z,17.47
2023-05-20T07:14:45.924Z,17.44
2023-05-20T07:17:15.290Z,17.36
2023-05-20T07:19:46.558Z,17.29
2023-05-20T07:22:15.686Z,17.24
2023-05-20T07:24:55.104Z,17.24
2023-05-20T07:27:23.877Z,17.24
2023-05-20T07:29:53.157Z,17.25
2023-05-20T07:32:22.977Z,17.33
2023-05-20T07:34:52.558Z,17.33
2023-05-20T07:37:21.418Z,17.35
2023-05-20T07:39:50.251Z,17.33
2023-05-20T07:42:19.468Z,17.32
2023-05-20T07:44:50.408Z,17.30
2023-05-20T07:47:19.537Z,17.37
2023-05-20T07:49:48.658Z,17.50
2023-05-20T07:52:17.671Z,17.72
2023-05-20T07:54:47.351Z,18.01
2023-05-20T07:57:16.223Z,18.20
2023-05-20T07:59:45.218Z,18.32
2023-05-20T08:02:14.179Z,18.36
2023-05-20T08:04:42.752Z,18.43
2023-05-20T08:07:11.108Z,18.39
2023-05-20T08:09:45.039Z,18.30
2023-05-20T08:12:14.210Z,18.28
2023-05-20T08:14:44.483Z,18.36
2023-05-20T08:17:13.462Z,18.44
2023-05-20T08:19:42.096Z,18.64
2023-05-20T08:22:10.508Z,18.89
2023-05-20T08:24:39.209Z,18.99
2023-05-20T08:27:07.686Z,19.06
2023-05-20T08:29:36.841Z,18.89
2023-05-20T08:32:05.709Z,18.74
2023-05-20T08:34:37.565Z,18.77
2023-05-20T08:37:06.224Z,18.85
2023-05-20T08:39:34.970Z,18.96
2023-05-20T08:42:07.313Z,19.14
2023-05-20T08:44:36.422Z,19.22
2023-05-20T08:47:05.613Z,19.25
2023-05-20T08:49:34.584Z,19.30
2023-05-20T08:52:03.627Z,19.35
2023-05-20T08:54:45.080Z,19.30
2023-05-20T08:57:17.484Z,19.43
2023-05-20T08:59:47.357Z,19.53
2023-05-20T09:02:16.525Z,19.58
2023-05-20T09:04:45.610Z,19.68
2023-05-20T09:07:14.626Z,19.82
2023-05-20T09:09:43.461Z,20.01
2023-05-20T09:12:11.775Z,20.13
2023-05-20T09:14:40.337Z,20.25
2023-05-20T09:17:08.822Z,20.32
2023-05-20T09:19:38.006Z,20.27
2023-05-20T09:22:06.427Z,20.16
2023-05-20T09:24:35.021Z,20.15
2023-05-20T09:27:03.221Z,20.21
2023-05-20T09:29:33.528Z,20.30
2023-05-20T09:32:02.889Z,20.41
2023-05-20T09:34:32.200Z,20.54
2023-05-20T09:37:01.094Z,20.69
2023-05-20T09:39:34.242Z,20.65
2023-05-20T09:42:06.312Z,20.69
2023-05-20T09:44:35.925Z,20.77
2023-05-20T09:47:07.758Z,20.96
2023-05-20T09:49:39.020Z,21.13
2023-05-20T09:52:08.399Z,21.23
2023-05-20T09:54:37.019Z,21.37
2023-05-20T09:57:05.225Z,21.53
2023-05-20T09:59:33.851Z,21.68
2023-05-20T10:02:02.982Z,21.74
2023-05-20T10:04:33.108Z,21.80
2023-05-20T10:07:02.124Z,21.91
2023-05-20T10:09:46.229Z,22.02
2023-05-20T10:12:32.342Z,22.10
2023-05-20T10:15:06.947Z,22.13
2023-05-20T10:17:47.654Z,22.19
2023-05-20T10:20:16.350Z,22.32
2023-05-20T10:22:55.891Z,22.31
2023-05-20T10:25:29.261Z,22.31
2023-05-20T10:28:09.376Z,22.33
2023-05-20T10:30:38.147Z,22.27
2023-05-20T10:33:07.928Z,22.26
2023-05-20T10:35:37.025Z,22.27
2023-05-20T10:38:11.111Z,22.22
2023-05-20T10:40:41.194Z,22.12
2023-05-20T10:43:17.665Z,21.92
2023-05-20T10:45:50.642Z,21.75
2023-05-20T10:48:27.020Z,21.69
2023-05-20T10:51:00.368Z,21.66
2023-05-20T10:53:33.562Z,21.60
2023-05-20T10:56:03.938Z,21.68
2023-05-20T10:58:39.313Z,21.77
2023-05-20T11:01:08.295Z,21.88
2023-05-20T11:03:37.642Z,21.95
2023-05-20T11:06:18.370Z,21.99
2023-05-20T11:08:48.456Z,21.98
2023-05-20T11:11:17.784Z,22.04
2023-05-20T11:13:51.141Z,22.18
2023-05-20T11:16:21.382Z,22.31
2023-05-20T11:18:51.078Z,22.44
2023-05-20T11:21:21.049Z,22.51
2023-05-20T11:23:52.364Z,22.58
2023-05-20T11:26:21.549Z,22.64
2023-05-20T11:28:50.600Z,22.71
2023-05-20T11:31:19.247Z,22.81
2023-05-20T11:33:47.821Z,22.89
2023-05-20T11:36:27.443Z,22.99
2023-05-20T11:39:00.330Z,23.12
2023-05-20T11:41:29.185Z,23.26
2023-05-20T11:44:01.094Z,23.31
2023-05-20T11:46:30.222Z,23.30
2023-05-20T11:48:59.193Z,23.36
2023-05-20T11:51:29.183Z,23.33
2023-05-20T11:54:02.339Z,23.22
2023-05-20T11:56:32.477Z,23.15
2023-05-20T11:59:02.078Z,23.12
2023-05-20T12:01:34.660Z,23.05
2023-05-20T12:04:04.711Z,23.02
2023-05-20T12:06:34.010Z,23.10
2023-05-20T12:09:07.656Z,23.19
2023-05-20T12:11:38.193Z,23.33
2023-05-20T12:14:08.397Z,23.47
2023-05-20T12:16:38.428Z,23.57
2023-05-20T12:19:09.250Z,23.63
2023-05-20T12:21:38.452Z,23.64
2023-05-20T12:24:09.200Z,23.69
2023-05-20T12:26:37.572Z,23.71
2023-05-20T12:29:07.254Z,23.72
2023-05-20T12:31:35.955Z,23.80
2023-05-20T12:34:04.363Z,23.91
2023-05-20T12:36:34.703Z,23.98
2023-05-20T12:39:06.864Z,24.02
2023-05-20T12:41:36.283Z,24.08
2023-05-20T12:44:06.785Z,24.14
2023-05-20T12:46:36.707Z,24.17
2023-05-20T12:49:05.366Z,24.23
2023-05-20T12:51:34.211Z,24.24
2023-05-20T12:54:03.128Z,24.24
2023-05-20T12:56:32.014Z,24.29
2023-05-20T12:59:01.149Z,24.39
2023-05-20T13:01:30.718Z,24.49
2023-05-20T13:03:59.740Z,24.58
2023-05-20T13:06:28.800Z,24.75
2023-05-20T13:08:57.430Z,24.94
2023-05-20T13:11:26.056Z,25.13
2023-05-20T13:13:57.809Z,25.22
2023-05-20T13:16:27.236Z,25.25
2023-05-20T13:18:55.994Z,25.26
2023-05-20T13:21:25.000Z,25.32
2023-05-20T13:23:53.465Z,25.39
2023-05-20T13:26:22.269Z,25.45
2023-05-20T13:28:51.188Z,25.50
2023-05-20T13:31:19.705Z,25.50
2023-05-20T13:33:48.240Z,25.45
2023-05-20T13:36:16.423Z,25.39
2023-05-20T13:38:44.650Z,25.30
2023-05-20T13:41:13.526Z,25.27
2023-05-20T13:43:42.520Z,25.28
2023-05-20T13:46:10.985Z,25.30
2023-05-20T13:48:39.352Z,25.35
2023-05-20T13:51:07.630Z,25.41
2023-05-20T13:53:35.953Z,25.41
2023-05-20T13:56:05.136Z,25.38
2023-05-20T13:58:33.338Z,25.34
2023-05-20T14:01:01.555Z,25.36
2023-05-20T14:03:30.305Z,25.36
2023-05-20T14:05:59.028Z,25.35
2023-05-20T14:08:27.870Z,25.37
2023-05-20T14:10:56.186Z,25.34
2023-05-20T14:13:25.143Z,25.33
2023-05-20T14:15:55.065Z,25.30
2023-05-20T14:18:23.467Z,25.34
2023-05-20T14:20:52.098Z,25.37
2023-05-20T14:23:22.153Z,25.37
2023-05-20T14:25:51.869Z,25.34
2023-05-20T14:28:21.574Z,25.28
2023-05-20T14:30:50.717Z,25.25
2023-05-20T14:33:19.152Z,25.15
2023-05-20T14:35:48.052Z,25.13
2023-05-20T14:38:17.860Z,25.17
2023-05-20T14:40:46.326Z,25.21
2023-05-20T14:43:15.488Z,25.27
2023-05-20T14:45:47.254Z,25.27
2023-05-20T14:48:16.314Z,25.24
2023-05-20T14:50:47.588Z,25.27
2023-05-20T14:53:19.578Z,25.28
2023-05-20T14:55:48.716Z,25.23
2023-05-20T14:58:17.172Z,25.21
2023-05-20T15:00:46.961Z,25.15
2023-05-20T15:03:16.276Z,25.10
2023-05-20T15:05:45.032Z,25.13
2023-05-20T15:08:13.547Z,25.16
2023-05-20T15:10:42.804Z,25.20
2023-05-20T15:13:11.804Z,25.23
2023-05-20T15:15:40.460Z,25.22
2023-05-20T15:18:09.888Z,25.18
2023-05-20T15:20:38.500Z,25.19
2023-05-20T15:23:07.569Z,25.15
2023-05-20T15:25:36.611Z,25.07
2023-05-20T15:28:05.943Z,24.97
2023-05-20T15:30:34.527Z,24.90
2023-05-20T15:33:03.643Z,24.80
2023-05-20T15:35:32.264Z,24.79
2023-05-20T15:38:00.941Z,24.73
2023-05-20T15:40:29.341Z,24.64
2023-05-20T15:42:58.632Z,24.59
2023-05-20T15:45:27.649Z,24.54
2023-05-20T15:47:56.137Z,24.47
2023-05-20T15:50:25.586Z,24.40
2023-05-20T15:52:55.407Z,24.29
2023-05-20T15:55:25.032Z,24.21
2023-05-20T15:57:54.204Z,24.13
2023-05-20T16:00:24.035Z,24.02
2023-05-20T16:02:54.861Z,23.88
2023-05-20T16:05:26.653Z,23.73
2023-05-20T16:07:57.734Z,23.66
2023-05-20T16:10:33.365Z,23.58
2023-05-20T16:13:02.106Z,23.48
2023-05-20T16:15:37.057Z,23.39
2023-05-20T16:18:06.492Z,23.36
2023-05-20T16:20:35.980Z,23.33
2023-05-20T16:23:06.008Z,23.24
2023-05-20T16:25:35.687Z,23.19
2023-05-20T16:28:04.247Z,23.14
2023-05-20T16:30:33.493Z,23.07
2023-05-20T16:33:02.811Z,23.03
2023-05-20T16:35:31.880Z,22.98
2023-05-20T16:38:01.415Z,22.96
2023-05-20T16:40:30.653Z,22.90
2023-05-20T16:43:00.677Z,22.82
2023-05-20T16:45:29.786Z,22.73
2023-05-20T16:47:59.104Z,22.60
2023-05-20T16:50:28.702Z,22.48
2023-05-20T16:52:59.760Z,22.37
2023-05-20T16:55:29.421Z,22.29
2023-05-20T16:57:59.010Z,22.20
2023-05-20T17:00:28.447Z,22.12
2023-05-20T17:02:57.887Z,22.09
2023-05-20T17:05:27.259Z,22.09
2023-05-20T17:08:00.207Z,22.05
2023-05-20T17:10:30.004Z,22.00
2023-05-20T17:12:59.155Z,21.93
2023-05-20T17:15:27.950Z,21.87
2023-05-20T17:17:56.639Z,21.82
2023-05-20T17:20:25.370Z,21.77
2023-05-20T17:22:54.767Z,21.71
2023-05-20T17:25:24.218Z,21.66
2023-05-20T17:27:53.783Z,21.64
2023-05-20T17:30:22.086Z,21.60
2023-05-20T17:32:53.910Z,21.58
2023-05-20T17:35:26.418Z,21.55
2023-05-20T17:37:56.130Z,21.47
2023-05-20T17:40:25.301Z,21.44
2023-05-20T17:42:54.990Z,21.38
2023-05-20T17:45:24.641Z,21.33
2023-05-20T17:47:53.800Z,21.26
2023-05-20T17:50:22.446Z,21.18
2023-05-20T17:52:50.902Z,21.09
2023-05-20T17:55:19.502Z,21.00
2023-05-20T17:57:48.799Z,20.90
2023-05-20T18:00:21.462Z,20.83
2023-05-20T18:02:50.023Z,20.79
2023-05-20T18:05:18.477Z,20.74
2023-05-20T18:07:47.167Z,20.73
2023-05-20T18:10:15.570Z,20.69
2023-05-20T18:12:46.049Z,20.65
2023-05-20T18:15:16.338Z,20.60
2023-05-20T18:17:46.222Z,20.56
2023-05-20T18:20:15.171Z,20.51
2023-05-20T18:22:47.224Z,20.44
2023-05-20T18:25:16.190Z,20.35
2023-05-20T18:27:45.247Z,20.24
2023-05-20T18:30:13.567Z,20.08
2023-05-20T18:32:42.173Z,19.96
2023-05-20T18:35:11.344Z,19.88
2023-05-20T18:37:39.744Z,19.79
2023-05-20T18:40:08.478Z,19.72
2023-05-20T18:42:38.022Z,19.61
2023-05-20T18:45:07.468Z,19.54
2023-05-20T18:47:36.780Z,19.45
2023-05-20T18:50:06.284Z,19.36
2023-05-20T18:52:35.377Z,19.28
2023-05-20T18:55:04.806Z,19.25
2023-05-20T18:57:34.173Z,19.20
2023-05-20T19:00:05.463Z,19.16
2023-05-20T19:02:34.621Z,19.11
2023-05-20T19:05:03.890Z,19.01
2023-05-20T19:07:33.822Z,18.95
2023-05-20T19:10:03.580Z,18.92
2023-05-20T19:12:31.869Z,18.83
2023-05-20T19:15:01.771Z,18.74
2023-05-20T19:17:31.158Z,18.64
2023-05-20T19:20:00.210Z,18.59
2023-05-20T19:22:28.984Z,18.54
2023-05-20T19:24:58.328Z,18.49
2023-05-20T19:27:27.417Z,18.42
2023-05-20T19:29:55.781Z,18.37
2023-05-20T19:32:24.236Z,18.34
2023-05-20T19:34:53.496Z,18.31
2023-05-20T19:37:23.244Z,18.26
2023-05-20T19:39:52.945Z,18.22
2023-05-20T19:42:22.531Z,18.14
2023-05-20T19:44:51.609Z,18.09
2023-05-20T19:47:20.675Z,18.05
2023-05-20T19:49:49.912Z,18.01
2023-05-20T19:52:20.026Z,17.97
2023-05-20T19:54:49.301Z,17.90
2023-05-20T19:57:18.185Z,17.84
2023-05-20T19:59:47.371Z,17.81
2023-05-20T20:02:16.652Z,17.77
2023-05-20T20:04:45.248Z,17.72
2023-05-20T20:07:14.752Z,17.65
2023-05-20T20:09:45.712Z,17.60
2023-05-20T20:12:14.883Z,17.56
2023-05-20T20:15:14.348Z,17.49
2023-05-20T20:17:52.703Z,17.40
2023-05-20T20:20:27.089Z,17.31
2023-05-20T20:22:57.386Z,17.24
2023-05-20T20:25:27.506Z,17.18
2023-05-20T20:27:56.302Z,17.15
2023-05-20T20:30:33.680Z,17.14
2023-05-20T20:33:06.764Z,17.13
2023-05-20T20:35:39.519Z,17.08
2023-05-20T20:38:11.567Z,17.03
2023-05-20T20:40:42.658Z,16.99
2023-05-20T20:43:25.526Z,16.96
2023-05-20T20:46:00.753Z,16.90
2023-05-20T20:48:29.616Z,16.83
2023-05-20T20:50:59.730Z,16.81
2023-05-20T20:53:55.589Z,16.81
2023-05-20T20:56:26.630Z,16.81
2023-05-20T20:58:57.386Z,16.78
2023-05-20T21:01:25.975Z,16.72
2023-05-20T21:04:15.505Z,16.66
2023-05-20T21:06:46.211Z,16.60
2023-05-20T21:09:19.920Z,16.55
2023-05-20T21:11:49.564Z,16.53
2023-05-20T21:14:18.477Z,16.50
2023-05-20T21:17:37.143Z,16.45
2023-05-20T21:20:29.048Z,16.46
2023-05-20T21:23:08.761Z,16.46
2023-05-20T21:25:37.704Z,16.44
2023-05-20T21:28:08.331Z,16.37
2023-05-20T21:30:41.828Z,16.30
2023-05-20T21:33:13.300Z,16.25
2023-05-20T21:35:44.309Z,16.21
2023-05-20T21:38:15.982Z,16.18
2023-05-20T21:40:47.430Z,16.14
2023-05-20T21:43:17.991Z,16.10
2023-05-20T21:45:48.763Z,16.07
2023-05-20T21:48:18.642Z,15.99
2023-05-20T21:50:49.222Z,15.91
2023-05-20T21:53:18.346Z,15.82
2023-05-20T21:55:47.175Z,15.78
2023-05-20T21:58:17.777Z,15.78
2023-05-20T22:00:49.191Z,15.79
2023-05-20T22:03:18.307Z,15.77
2023-05-20T22:05:49.997Z,15.73
2023-05-20T22:08:22.560Z,15.71
2023-05-20T22:10:55.269Z,15.69
2023-05-20T22:13:26.775Z,15.64
2023-05-20T22:16:05.921Z,15.60
2023-05-20T22:18:37.920Z,15.59
2023-05-20T22:21:09.825Z,15.58
2023-05-20T22:23:42.819Z,15.56
2023-05-20T22:26:20.959Z,15.55
2023-05-20T22:28:49.470Z,15.53
2023-05-20T22:31:19.928Z,15.54
2023-05-20T22:33:53.301Z,15.53
2023-05-20T22:38:52.700Z,15.56
2023-05-20T22:42:01.157Z,15.54
2023-05-20T22:46:10.469Z,15.46
2023-05-20T22:49:50.418Z,15.37
2023-05-20T22:53:01.168Z,15.27
2023-05-20T22:55:45.783Z,15.21
2023-05-20T22:58:40.480Z,15.14
2023-05-20T23:01:14.860Z,15.09
2023-05-20T23:03:51.115Z,15.05
2023-05-20T23:06:23.362Z,14.97
2023-05-20T23:09:14.784Z,14.92
2023-05-20T23:11:48.999Z,14.85
2023-05-20T23:14:25.125Z,14.81
2023-05-20T23:16:55.463Z,14.76
2023-05-20T23:19:26.704Z,14.71
2023-05-20T23:22:30.257Z,14.65
2023-05-20T23:25:59.847Z,14.61
2023-05-20T23:29:30.232Z,14.59
2023-05-20T23:32:55.498Z,14.56
2023-05-20T23:36:25.377Z,14.53
2023-05-20T23:39:50.661Z,14.51
2023-05-20T23:43:18.255Z,14.50
2023-05-20T23:47:01.660Z,14.49
2023-05-20T23:51:09.483Z,14.46
2023-05-20T23:59:11.939Z,14.43
